Friday, June 22, 2018, 3:35 AM EDT
Back to Local

KMTP, Montauk Airport

Location: Montauk, NY, United States Lat: 41.067
Local Time: 3:35 AM EDT ( 7:35 GMT) Lon: -71.917
Time Zone: US/Eastern Elev: 6 ft

Show me the last for .
Show Decoded

2018-06-22 02:54 METAR KMTP 220654Z AUTO 05003KT 17/17 A2992 RMK AO1 SLP132 T01670167 =
2018-06-22 01:54 METAR KMTP 220554Z AUTO 03004KT 17/17 A2991 RMK AO1 SLP129 T01670167 10178 20167
                 51006 =
2018-06-22 00:54 METAR KMTP 220454Z AUTO 00000KT 17/17 A2991 RMK AO1 SLP128 T01670167 402220167 =
2018-06-21 23:54 METAR KMTP 220354Z AUTO 07003KT 17/17 A2990 RMK AO1 SLP125 T01670167 =
2018-06-21 22:54 METAR KMTP 220254Z AUTO 08004KT 17/17 A2990 RMK AO1 SLP123 T01720172 53021 =
2018-06-21 21:54 METAR KMTP 220154Z AUTO 00000KT 17/17 A2987 RMK AO1 SLP116 T01720172 =
2018-06-21 20:54 METAR KMTP 220054Z AUTO 09003KT 17/17 A2985 RMK AO1 SLP106 T01720172 =
2018-06-21 19:54 METAR KMTP 212354Z AUTO 08005KT 17/17 A2983 RMK AO1 SLP102 T01720172 10222 20172
                 53019 =
2018-06-21 18:54 METAR KMTP 212254Z AUTO VRB03KT 18/17 A2981 RMK AO1 SLP095 T01780172 =
2018-06-21 17:54 METAR KMTP 212154Z AUTO VRB04KT 19/18 A2979 RMK AO1 SLP087 T01940178 =
2018-06-21 16:54 METAR KMTP 212054Z AUTO VRB03KT 21/19 A2978 RMK AO1 SLP083 T02110189 55000 =
2018-06-21 15:54 METAR KMTP 211954Z AUTO VRB05KT 21/18 A2977 RMK AO1 SLP081 T02110183 =
2018-06-21 14:54 METAR KMTP 211854Z AUTO VRB04KT 22/19 A2977 RMK AO1 SLP081 T02170194 =
2018-06-21 13:54 METAR KMTP 211754Z AUTO 06004KT 20/18 A2978 RMK AO1 SLP083 T02000183 10206 20172
                 58008 =
2018-06-21 12:54 METAR KMTP 211654Z AUTO 04007KT 19/18 A2978 RMK AO1 SLP085 T01890183 =
2018-06-21 11:54 METAR KMTP 211554Z AUTO 02006KT 19/18 A2980 RMK AO1 SLP091 T01890178 =
2018-06-21 10:54 METAR KMTP 211454Z AUTO 03004KT 18/17 A2980 RMK AO1 SLP090 T01780172 53007 =
2018-06-21 09:54 METAR KMTP 211354Z AUTO 00000KT 17/17 A2979 RMK AO1 SLP088 T01720172 =
2018-06-21 08:54 METAR KMTP 211254Z AUTO VRB03KT 18/18 A2978 RMK AO1 SLP084 T01780178 =
2018-06-21 07:54 METAR KMTP 211154Z AUTO 00000KT 18/17 A2978 RMK AO1 SLP083 60031 70031 T01780172
                 10206 20172 55001 =
2018-06-21 06:54 METAR KMTP 211054Z AUTO 00000KT 18/17 A2978 RMK AO1 SLP083 P0001 T01780167 =
2018-06-21 05:54 METAR KMTP 210954Z AUTO 01003KT 17/17 A2978 RMK AO1 SLP083 P0003 T01720172 =
2018-06-21 04:54 METAR KMTP 210854Z AUTO 34006KT 18/17 A2978 RMK AO1 SLP085 P0010 60027 T01780172
                 56004 =
2018-06-21 03:54 METAR KMTP 210754Z AUTO 29004KT 18/18 A2978 RMK AO1 SLP085 P0012 T01830183 =

Support USWX by starting your Amazon purchase here.